Time;durP1;ratioP1;P1;durP2;ratioP2;P2;SDS_P1;SDS_P2;PMS_P1;PMS_P2;Temp;Humidity;BMP_temperature;BMP_pressure;BME280_temperature;BME280_humidity;BME280_pressure;Samples;Min_cycle;Max_cycle;Signal;HPM_P1;HPM_P2
2022/06/26 00:00:05;;;;;;;4.18;2.33;;;;;;;22.10;61.48;99125.06;343733;28;857;-82
2022/06/26 00:00:19;;;;;;;4.30;2.30;;;;;;;22.10;61.29;99121.59;342628;28;1100;-82
2022/06/26 00:00:32;;;;;;;3.38;2.30;;;;;;;22.10;61.22;99121.59;342733;28;1098;-82
2022/06/26 00:00:44;;;;;;;4.38;2.50;;;;;;;22.09;61.00;99125.19;343211;28;772;-82
2022/06/26 00:00:59;;;;;;;5.03;2.50;;;;;;;22.09;60.99;99118.13;341882;28;1217;-82
2022/06/26 00:01:11;;;;;;;4.72;2.25;;;;;;;22.08;61.47;99121.72;345864;28;1172;-82
2022/06/26 00:01:24;;;;;;;3.85;2.30;;;;;;;22.08;61.13;99120.88;344424;28;1214;-81
2022/06/26 00:01:36;;;;;;;4.10;2.40;;;;;;;22.08;61.46;99120.88;342894;28;1206;-83
2022/06/26 00:01:48;;;;;;;4.40;2.45;;;;;;;22.07;61.02;99121.84;342708;28;1173;-82
2022/06/26 00:02:00;;;;;;;3.60;2.40;;;;;;;22.05;61.15;99123.78;343021;28;757;-82
2022/06/26 00:02:12;;;;;;;3.13;2.30;;;;;;;22.04;61.49;99122.97;344182;28;840;-82
2022/06/26 00:02:24;;;;;;;2.65;2.10;;;;;;;22.04;61.07;99122.97;344340;28;848;-82
2022/06/26 00:02:36;;;;;;;2.58;2.17;;;;;;;22.05;61.45;99123.78;342833;28;1051;-82
2022/06/26 00:02:48;;;;;;;3.08;2.13;;;;;;;22.05;61.21;99123.78;342784;28;1134;-82
2022/06/26 00:03:00;;;;;;;4.88;2.38;;;;;;;22.03;61.71;99117.81;342774;28;1186;-82
2022/06/26 00:03:13;;;;;;;4.28;2.40;;;;;;;22.03;61.97;99131.03;341722;29;1087;-82
2022/06/26 00:03:25;;;;;;;4.05;2.33;;;;;;;22.03;62.80;99125.75;341760;28;1171;-82
2022/06/26 00:03:37;;;;;;;4.50;2.28;;;;;;;22.02;62.51;99129.38;343241;28;1297;-82
2022/06/26 00:03:50;;;;;;;5.50;2.40;;;;;;;22.03;63.01;99131.03;343441;28;927;-82
2022/06/26 00:04:02;;;;;;;4.93;2.42;;;;;;;22.02;62.90;99126.72;343348;28;1064;-82
2022/06/26 00:04:14;;;;;;;2.83;2.38;;;;;;;22.03;62.71;99126.56;345062;28;771;-81
2022/06/26 00:04:27;;;;;;;2.63;2.28;;;;;;;22.03;62.36;99131.88;345934;28;736;-81
2022/06/26 00:04:39;;;;;;;3.13;2.10;;;;;;;22.03;62.23;99125.75;345076;28;1155;-82
2022/06/26 00:04:51;;;;;;;2.70;1.92;;;;;;;22.03;62.31;99131.03;345256;28;2060;-82
2022/06/26 00:05:04;;;;;;;2.67;1.90;;;;;;;22.03;62.09;99126.56;344370;28;1158;-82
2022/06/26 00:05:16;;;;;;;3.15;2.10;;;;;;;22.03;62.34;99125.75;344564;28;1043;-82
2022/06/26 00:05:28;;;;;;;3.17;2.20;;;;;;;22.03;61.89;99125.75;344301;28;749;-82
2022/06/26 00:05:40;;;;;;;3.37;2.10;;;;;;;22.03;61.35;99131.03;343004;28;1201;-82
2022/06/26 00:05:53;;;;;;;3.83;2.10;;;;;;;22.02;61.28;99132.03;342854;28;1056;-81
2022/06/26 00:06:05;;;;;;;3.97;2.30;;;;;;;22.01;61.19;99130.34;343900;28;1084;-81
2022/06/26 00:06:17;;;;;;;4.75;2.33;;;;;;;22.00;61.06;99132.16;343331;28;742;-81
2022/06/26 00:06:32;;;;;;;6.85;2.58;;;;;;;21.99;61.01;99134.94;343098;28;968;-82
2022/06/26 00:06:44;;;;;;;6.35;2.60;;;;;;;22.00;61.13;99131.31;342462;28;1138;-82
2022/06/26 00:06:59;;;;;;;4.85;2.33;;;;;;;22.01;61.56;99139.09;343324;28;741;-82
2022/06/26 00:07:11;;;;;;;4.25;2.05;;;;;;;22.01;61.43;99138.28;342742;28;1063;-82
2022/06/26 00:07:24;;;;;;;4.25;1.98;;;;;;;22.02;61.18;99129.38;343800;28;1187;-82
2022/06/26 00:07:36;;;;;;;3.45;2.00;;;;;;;22.04;61.12;99138.03;344265;28;768;-82
2022/06/26 00:07:49;;;;;;;2.38;2.03;;;;;;;22.03;61.12;99128.38;345114;28;1711;-82
2022/06/26 00:08:02;;;;;;;3.00;2.10;;;;;;;22.02;61.20;99134.66;345612;28;770;-82
2022/06/26 00:08:14;;;;;;;3.40;2.00;;;;;;;22.02;61.18;99137.31;345394;28;1067;-82
2022/06/26 00:08:26;;;;;;;3.78;2.03;;;;;;;22.00;61.28;99136.63;344152;28;1115;-82
2022/06/26 00:08:38;;;;;;;3.83;2.20;;;;;;;21.98;61.08;99138.56;344032;28;1202;-81
2022/06/26 00:08:52;;;;;;;3.35;2.30;;;;;;;21.96;61.32;99141.34;342978;28;1338;-81
2022/06/26 00:09:05;;;;;;;4.78;2.33;;;;;;;21.91;61.37;99139.09;343000;28;1194;-81
2022/06/26 00:09:17;;;;;;;4.20;2.22;;;;;;;21.89;61.22;99138.41;342721;28;1087;-81
2022/06/26 00:09:29;;;;;;;3.92;2.20;;;;;;;21.87;61.38;99137.69;343247;28;802;-82
2022/06/26 00:09:43;;;;;;;4.85;2.30;;;;;;;21.85;61.64;99144.94;343733;28;983;-82
2022/06/26 00:09:55;;;;;;;5.20;2.33;;;;;;;21.83;61.71;99140.72;342438;28;1079;-82
2022/06/26 00:10:07;;;;;;;5.18;2.35;;;;;;;21.81;61.91;99145.31;342447;28;1096;-81
2022/06/26 00:10:19;;;;;;;4.75;2.38;;;;;;;21.78;61.78;99149.06;342412;28;1167;-82
2022/06/26 00:10:31;;;;;;;3.83;2.40;;;;;;;21.76;62.18;99155.47;343928;28;1068;-82
2022/06/26 00:10:45;;;;;;;4.75;2.50;;;;;;;21.68;62.61;99153.50;344044;28;1183;-82
2022/06/26 00:10:57;;;;;;;4.68;2.40;;;;;;;21.67;62.39;99163.25;342893;28;1150;-81
2022/06/26 00:11:09;;;;;;;4.63;2.25;;;;;;;21.65;62.01;99166.97;342704;28;1056;-82
2022/06/26 00:11:21;;;;;;;5.55;2.20;;;;;;;21.35;63.07;99179.19;341892;28;1048;-81
2022/06/26 00:11:33;;;;;;;4.72;2.40;;;;;;;21.30;63.18;99192.78;341597;29;1092;-81
2022/06/26 00:11:53;;;;;;;3.72;2.40;;;;;;;21.23;63.52;99207.50;341745;28;955;-81
2022/06/26 00:12:05;;;;;;;4.50;2.40;;;;;;;21.25;63.97;99215.28;341321;29;1124;-82
2022/06/26 00:12:17;;;;;;;3.78;2.42;;;;;;;21.23;63.91;99223.38;339868;29;1173;-81
2022/06/26 00:12:29;;;;;;;5.20;2.45;;;;;;;21.15;63.75;99218.72;339849;29;775;-81
2022/06/26 00:12:41;;;;;;;5.13;2.45;;;;;;;21.00;63.92;99214.69;341182;29;1065;-81
2022/06/26 00:12:53;;;;;;;6.22;2.40;;;;;;;20.80;64.50;99244.56;342353;28;1028;-82
2022/06/26 00:13:05;;;;;;;5.47;2.40;;;;;;;20.55;64.90;99234.16;343954;28;1218;-82
2022/06/26 00:13:17;;;;;;;4.95;2.30;;;;;;;20.62;64.74;99218.69;343712;28;1079;-82
2022/06/26 00:13:30;;;;;;;6.40;2.30;;;;;;;20.53;64.83;99224.69;345253;28;1094;-82
2022/06/26 00:13:42;;;;;;;6.53;2.28;;;;;;;20.59;64.64;99233.94;344020;28;1029;-82
2022/06/26 00:13:54;;;;;;;7.85;2.40;;;;;;;20.60;64.34;99215.31;345624;28;1072;-82
2022/06/26 00:14:06;;;;;;;6.40;2.38;;;;;;;20.59;63.96;99216.31;344493;28;1084;-81
2022/06/26 00:14:18;;;;;;;5.03;2.30;;;;;;;20.66;63.92;99214.81;344445;28;1071;-82
2022/06/26 00:14:30;;;;;;;4.68;2.40;;;;;;;20.68;63.63;99204.13;345439;28;1595;-82
2022/06/26 00:14:42;;;;;;;5.18;2.40;;;;;;;20.75;63.25;99208.81;345909;28;752;-82
2022/06/26 00:14:54;;;;;;;4.60;2.40;;;;;;;20.81;63.25;99206.63;343851;28;1481;-81
2022/06/26 00:15:07;;;;;;;3.28;2.22;;;;;;;20.83;63.24;99199.41;342895;28;1603;-82
2022/06/26 00:15:19;;;;;;;2.40;2.13;;;;;;;20.88;62.87;99197.22;343856;28;1076;-81
2022/06/26 00:15:31;;;;;;;2.30;2.10;;;;;;;20.89;62.73;99196.28;343812;28;1478;-81
2022/06/26 00:15:43;;;;;;;2.40;2.05;;;;;;;20.93;62.45;99193.25;344279;28;737;-81
2022/06/26 00:15:55;;;;;;;2.90;2.00;;;;;;;20.95;62.50;99188.66;342801;28;1236;-81
2022/06/26 00:16:07;;;;;;;3.50;1.90;;;;;;;21.00;62.27;99190.09;342959;28;1226;-81
2022/06/26 00:16:21;;;;;;;4.40;2.08;;;;;;;20.98;62.63;99187.56;344656;28;736;-82
2022/06/26 00:16:33;;;;;;;4.15;2.20;;;;;;;20.90;62.48;99185.56;344034;28;1036;-82
2022/06/26 00:16:45;;;;;;;4.45;2.20;;;;;;;20.85;63.50;99181.63;343801;28;1219;-81
2022/06/26 00:16:57;;;;;;;4.20;2.13;;;;;;;20.79;63.56;99182.16;344265;28;1168;-82
2022/06/26 00:17:10;;;;;;;5.00;2.15;;;;;;;20.80;64.28;99183.81;344448;28;1061;-82
2022/06/26 00:17:22;;;;;;;4.90;2.20;;;;;;;20.88;63.64;99186.66;343797;28;1095;-81
2022/06/26 00:17:34;;;;;;;3.70;2.10;;;;;;;20.95;63.09;99193.13;342487;28;1031;-81
2022/06/26 00:17:47;;;;;;;2.72;2.13;;;;;;;21.01;62.52;99187.31;342836;28;745;-81
2022/06/26 00:17:59;;;;;;;3.33;2.13;;;;;;;21.08;61.94;99191.09;342502;28;1164;-82
2022/06/26 00:18:11;;;;;;;4.78;2.20;;;;;;;21.13;62.16;99194.22;342318;28;1003;-82
2022/06/26 00:18:23;;;;;;;5.10;2.10;;;;;;;21.15;61.87;99194.09;341825;28;1112;-81
2022/06/26 00:18:36;;;;;;;4.65;2.08;;;;;;;21.09;61.31;99189.31;342328;28;1421;-82
2022/06/26 00:18:48;;;;;;;5.65;2.00;;;;;;;21.14;61.18;99198.53;342686;28;1718;-82
2022/06/26 00:19:00;;;;;;;5.53;1.92;;;;;;;21.19;60.75;99189.38;341398;29;1469;-82
2022/06/26 00:19:13;;;;;;;3.28;1.90;;;;;;;21.21;60.72;99190.94;341892;29;738;-82
2022/06/26 00:19:25;;;;;;;2.47;1.90;;;;;;;21.27;60.70;99187.78;341223;29;1076;-82
2022/06/26 00:19:37;;;;;;;3.13;1.98;;;;;;;21.30;60.84;99178.75;342189;28;738;-82
2022/06/26 00:19:49;;;;;;;3.53;2.10;;;;;;;21.34;60.93;99188.09;343312;28;1283;-82
2022/06/26 00:20:02;;;;;;;3.20;2.20;;;;;;;21.39;60.72;99191.19;344444;28;1125;-82
2022/06/26 00:20:14;;;;;;;3.08;2.15;;;;;;;21.41;60.10;99194.53;345267;28;1072;-81
2022/06/26 00:20:26;;;;;;;3.58;2.00;;;;;;;21.39;59.87;99191.19;345236;28;1169;-81
2022/06/26 00:20:38;;;;;;;3.25;1.90;;;;;;;21.41;59.79;99194.53;345374;28;1039;-82
2022/06/26 00:20:51;;;;;;;3.30;1.95;;;;;;;21.45;60.09;99193.34;345003;28;1976;-82
2022/06/26 00:21:05;;;;;;;3.97;2.00;;;;;;;21.49;60.00;99186.81;345845;28;782;-81
2022/06/26 00:21:17;;;;;;;3.78;2.00;;;;;;;21.54;60.08;99200.47;345444;28;1063;-81
2022/06/26 00:21:29;;;;;;;2.92;1.90;;;;;;;21.58;59.98;99190.47;345320;28;1125;-81
2022/06/26 00:21:41;;;;;;;3.28;1.90;;;;;;;21.64;59.86;99197.06;345587;28;1262;-81
2022/06/26 00:21:53;;;;;;;3.00;1.90;;;;;;;21.69;59.82;99200.13;345368;28;1101;-81
2022/06/26 00:22:06;;;;;;;2.83;1.85;;;;;;;21.72;59.70;99197.22;345411;28;1094;-82
2022/06/26 00:22:18;;;;;;;4.20;2.00;;;;;;;21.76;59.46;99192.50;345796;28;949;-82
2022/06/26 00:22:30;;;;;;;4.45;2.00;;;;;;;21.78;59.29;99196.69;344880;28;1185;-82
2022/06/26 00:22:42;;;;;;;3.38;1.77;;;;;;;21.79;59.30;99197.53;344678;28;1190;-82
2022/06/26 00:22:54;;;;;;;2.90;1.80;;;;;;;21.82;59.10;99199.91;344126;28;1102;-82
2022/06/26 00:23:06;;;;;;;4.47;2.00;;;;;;;21.82;59.30;99194.63;342441;28;1076;-82
2022/06/26 00:23:18;;;;;;;4.40;2.00;;;;;;;21.81;58.67;99199.09;342737;28;1051;-82
2022/06/26 00:23:30;;;;;;;3.47;1.90;;;;;;;21.82;58.70;99203.41;342512;28;1169;-81
2022/06/26 00:23:42;;;;;;;3.90;1.90;;;;;;;21.86;58.60;99194.22;342716;28;1052;-81
2022/06/26 00:23:54;;;;;;;2.67;1.80;;;;;;;21.91;58.66;99201.75;342617;28;1032;-82
2022/06/26 00:24:06;;;;;;;2.22;1.80;;;;;;;21.92;58.63;99206.09;343624;28;1038;-82
2022/06/26 00:24:18;;;;;;;3.17;1.90;;;;;;;21.96;58.53;99204.03;344250;28;1191;-82
2022/06/26 00:24:30;;;;;;;4.18;1.98;;;;;;;22.00;58.36;99205.41;344359;28;943;-81
2022/06/26 00:24:42;;;;;;;3.50;1.90;;;;;;;22.00;58.04;99200.97;344227;28;1229;-81
2022/06/26 00:24:54;;;;;;;2.95;1.90;;;;;;;21.99;57.75;99198.44;345701;28;1035;-81
2022/06/26 00:25:08;;;;;;;2.38;1.90;;;;;;;21.99;57.68;99209.84;346839;28;789;-82
2022/06/26 00:25:20;;;;;;;2.00;1.70;;;;;;;21.98;57.88;99207.38;346759;28;1076;-82
2022/06/26 00:25:33;;;;;;;2.55;1.88;;;;;;;21.99;57.97;99206.38;346504;28;1209;-81
2022/06/26 00:25:45;;;;;;;3.28;2.00;;;;;;;22.03;57.73;99197.19;346931;28;881;-81
2022/06/26 00:25:57;;;;;;;3.80;2.03;;;;;;;22.04;57.64;99197.06;345573;28;1011;-82
2022/06/26 00:26:09;;;;;;;3.20;2.00;;;;;;;21.98;58.00;99204.72;344038;28;1150;-81
2022/06/26 00:26:20;;;;;;;4.25;1.95;;;;;;;22.02;58.14;99208.78;342531;28;1175;-82
2022/06/26 00:26:33;;;;;;;4.00;1.90;;;;;;;22.06;57.96;99204.88;342735;28;971;-81
2022/06/26 00:26:45;;;;;;;3.10;1.92;;;;;;;22.07;57.73;99206.53;343033;28;1987;-81
2022/06/26 00:26:56;;;;;;;3.15;2.00;;;;;;;22.09;58.01;99204.59;343550;28;1748;-81
2022/06/26 00:27:09;;;;;;;3.10;2.00;;;;;;;22.10;58.04;99203.66;344105;28;1024;-82
2022/06/26 00:27:20;;;;;;;2.90;2.00;;;;;;;22.04;58.07;99209.47;342841;28;1153;-81
2022/06/26 00:27:35;;;;;;;2.47;1.90;;;;;;;22.09;57.64;99209.91;342543;28;1125;-82
2022/06/26 00:27:48;;;;;;;2.97;1.80;;;;;;;22.08;57.83;99206.41;342674;28;1075;-81
2022/06/26 00:28:00;;;;;;;2.75;1.80;;;;;;;22.10;57.42;99206.28;342577;28;1219;-81
2022/06/26 00:28:12;;;;;;;2.78;1.80;;;;;;;22.14;57.46;99210.34;343557;28;1670;-81
2022/06/26 00:28:24;;;;;;;2.90;1.80;;;;;;;22.17;57.51;99209.22;344252;28;1040;-82
2022/06/26 00:28:36;;;;;;;3.50;1.80;;;;;;;22.18;57.30;99211.75;344643;28;1187;-81
2022/06/26 00:28:48;;;;;;;5.72;1.90;;;;;;;22.20;57.11;99215.09;343893;28;2006;-81
2022/06/26 00:29:00;;;;;;;4.85;1.90;;;;;;;22.23;57.10;99201.56;345104;28;1667;-81
2022/06/26 00:29:12;;;;;;;4.93;1.88;;;;;;;22.24;56.58;99208.59;344233;28;1615;-82
2022/06/26 00:29:24;;;;;;;3.75;1.83;;;;;;;22.27;56.43;99213.59;344810;28;1100;-81
2022/06/26 00:29:36;;;;;;;3.25;1.80;;;;;;;22.22;56.02;99209.66;345500;28;1082;-81
2022/06/26 00:29:47;;;;;;;3.30;1.80;;;;;;;22.26;56.33;99211.09;345743;28;729;-82
2022/06/26 00:30:00;;;;;;;2.78;1.70;;;;;;;22.29;55.86;99216.13;345503;28;1530;-82
2022/06/26 00:30:13;;;;;;;2.17;1.80;;;;;;;22.22;56.43;99215.78;343555;28;1078;-81
2022/06/26 00:30:25;;;;;;;2.08;1.88;;;;;;;22.26;55.93;99211.94;344150;28;1127;-82
2022/06/26 00:30:37;;;;;;;2.10;1.90;;;;;;;22.28;56.15;99215.28;345101;28;1310;-82
2022/06/26 00:30:49;;;;;;;2.85;1.80;;;;;;;22.31;56.25;99208.88;343601;28;1058;-81
2022/06/26 00:31:01;;;;;;;3.83;1.90;;;;;;;22.33;55.99;99213.09;344832;28;1172;-82
2022/06/26 00:31:13;;;;;;;4.37;1.80;;;;;;;22.38;56.19;99211.84;344151;28;1950;-81
2022/06/26 00:31:25;;;;;;;2.77;1.70;;;;;;;22.40;56.08;99212.53;345388;28;1090;-81
2022/06/26 00:31:38;;;;;;;2.05;1.60;;;;;;;22.39;56.37;99211.69;345576;28;1097;-81
2022/06/26 00:31:50;;;;;;;2.80;1.58;;;;;;;22.39;55.88;99206.38;344009;28;1079;-81
2022/06/26 00:32:04;;;;;;;3.30;1.67;;;;;;;22.43;55.66;99212.25;343202;28;1377;-81
2022/06/26 00:32:16;;;;;;;3.40;1.80;;;;;;;22.44;55.69;99209.47;342030;28;1210;-81
2022/06/26 00:32:28;;;;;;;3.00;1.88;;;;;;;22.46;56.07;99209.34;341565;29;1138;-82
2022/06/26 00:32:40;;;;;;;3.10;1.80;;;;;;;22.44;55.72;99214.75;342020;28;1081;-81
2022/06/26 00:32:52;;;;;;;4.05;1.77;;;;;;;22.47;55.59;99208.34;342751;28;1047;-81
2022/06/26 00:33:05;;;;;;;3.85;1.75;;;;;;;22.49;55.37;99217.00;342802;28;1312;-81
2022/06/26 00:33:17;;;;;;;3.90;1.77;;;;;;;22.46;55.81;99214.63;341640;29;777;-81
2022/06/26 00:33:29;;;;;;;3.38;1.73;;;;;;;22.47;55.70;99213.66;341509;29;884;-81
2022/06/26 00:33:41;;;;;;;2.65;1.70;;;;;;;22.48;55.96;99210.03;341218;29;1304;-82
2022/06/26 00:33:53;;;;;;;3.35;1.70;;;;;;;22.49;55.53;99211.69;342181;28;738;-81
2022/06/26 00:34:05;;;;;;;2.93;1.70;;;;;;;22.50;55.36;99210.75;341434;29;1080;-81
2022/06/26 00:34:17;;;;;;;2.35;1.67;;;;;;;22.52;55.71;99217.56;341778;28;1007;-81
2022/06/26 00:34:29;;;;;;;2.95;1.70;;;;;;;22.56;54.92;99212.84;343182;28;1249;-81
2022/06/26 00:34:41;;;;;;;4.25;1.67;;;;;;;22.58;54.95;99213.53;342528;28;1173;-81
2022/06/26 00:34:53;;;;;;;4.40;1.60;;;;;;;22.59;54.96;99209.06;342556;28;1042;-81
2022/06/26 00:35:05;;;;;;;2.67;1.60;;;;;;;22.61;54.98;99215.06;342921;28;1133;-81
2022/06/26 00:35:18;;;;;;;2.42;1.55;;;;;;;22.63;54.97;99218.41;342944;28;1078;-81
2022/06/26 00:35:29;;;;;;;3.10;1.65;;;;;;;22.64;54.87;99212.16;344029;28;590;-82
2022/06/26 00:35:41;;;;;;;3.15;1.70;;;;;;;22.66;54.87;99208.38;342368;28;1165;-81
2022/06/26 00:35:53;;;;;;;2.47;1.85;;;;;;;22.68;55.23;99217.03;342646;28;1085;-81
2022/06/26 00:36:05;;;;;;;4.40;2.00;;;;;;;22.64;55.20;99226.22;342897;28;1127;-81
2022/06/26 00:36:17;;;;;;;4.32;1.90;;;;;;;22.60;55.44;99224.84;344077;28;1035;-82
2022/06/26 00:36:29;;;;;;;3.70;1.90;;;;;;;22.63;54.84;99224.53;342714;28;1059;-81
2022/06/26 00:36:41;;;;;;;3.13;1.90;;;;;;;22.62;55.04;99220.22;341697;29;1065;-81
2022/06/26 00:36:53;;;;;;;3.10;1.73;;;;;;;22.61;55.28;99228.31;342062;28;750;-81
2022/06/26 00:37:05;;;;;;;3.20;1.67;;;;;;;22.63;55.21;99224.53;341901;28;1207;-81
2022/06/26 00:37:17;;;;;;;2.55;1.70;;;;;;;22.64;55.05;99223.59;343038;28;750;-81
2022/06/26 00:37:29;;;;;;;3.47;1.80;;;;;;;22.64;55.28;99228.06;343876;28;1055;-82
2022/06/26 00:37:41;;;;;;;3.83;1.77;;;;;;;22.59;55.29;99223.13;344632;28;749;-82
2022/06/26 00:37:55;;;;;;;4.00;1.70;;;;;;;22.62;55.17;99227.34;342356;28;1710;-81
2022/06/26 00:38:07;;;;;;;2.53;1.70;;;;;;;22.64;55.47;99228.88;342429;28;1171;-81
2022/06/26 00:38:19;;;;;;;2.92;1.70;;;;;;;22.60;55.41;99238.06;342420;28;1080;-81
2022/06/26 00:38:31;;;;;;;2.42;1.70;;;;;;;22.58;55.26;99232.06;341603;29;1203;-81
2022/06/26 00:38:43;;;;;;;2.17;1.83;;;;;;;22.58;55.39;99237.38;342717;28;1071;-81
2022/06/26 00:38:56;;;;;;;2.63;1.85;;;;;;;22.63;55.23;99232.50;342497;28;1551;-81
2022/06/26 00:39:08;;;;;;;3.50;1.80;;;;;;;22.66;55.18;99231.41;342541;28;1690;-81
2022/06/26 00:39:20;;;;;;;2.90;1.67;;;;;;;22.63;55.38;99231.66;343953;28;999;-81
2022/06/26 00:39:32;;;;;;;3.45;1.77;;;;;;;22.57;55.53;99230.38;344399;28;1112;-82
2022/06/26 00:39:44;;;;;;;3.92;1.80;;;;;;;22.63;55.50;99235.13;344077;28;1057;-81
2022/06/26 00:39:58;;;;;;;3.67;1.70;;;;;;;22.63;55.56;99232.50;343931;28;1117;-81
2022/06/26 00:40:10;;;;;;;1.90;1.55;;;;;;;22.62;55.28;99233.47;345852;28;825;-81
2022/06/26 00:40:22;;;;;;;1.75;1.50;;;;;;;22.53;55.35;99235.13;345087;28;1059;-82
2022/06/26 00:40:34;;;;;;;2.05;1.58;;;;;;;22.56;55.56;99239.31;345134;28;1204;-81
2022/06/26 00:40:46;;;;;;;3.70;1.90;;;;;;;22.43;55.77;99239.56;345964;28;1818;-81
2022/06/26 00:40:58;;;;;;;4.55;1.90;;;;;;;22.32;55.96;99243.16;344624;28;1083;-82
2022/06/26 00:41:10;;;;;;;3.88;1.73;;;;;;;22.39;55.64;99232.03;346833;28;747;-81
2022/06/26 00:41:22;;;;;;;2.65;1.75;;;;;;;22.42;55.91;99237.06;344290;28;1182;-81
2022/06/26 00:41:34;;;;;;;2.75;1.80;;;;;;;22.41;55.86;99230.91;344790;28;789;-81
2022/06/26 00:41:47;;;;;;;2.97;1.90;;;;;;;22.42;56.00;99234.41;344189;28;1097;-81
2022/06/26 00:41:59;;;;;;;2.80;1.70;;;;;;;22.45;55.69;99239.44;344843;28;1660;-81
2022/06/26 00:42:10;;;;;;;2.50;1.60;;;;;;;22.48;55.43;99233.88;343385;28;1068;-81
2022/06/26 00:42:23;;;;;;;2.30;1.60;;;;;;;22.49;55.67;99232.88;343124;28;782;-81
2022/06/26 00:42:35;;;;;;;2.47;1.75;;;;;;;22.51;55.83;99236.22;342792;28;1205;-81
2022/06/26 00:42:47;;;;;;;2.25;1.80;;;;;;;22.51;55.64;99241.53;343644;28;1572;-81
2022/06/26 00:42:59;;;;;;;2.22;1.70;;;;;;;22.48;55.74;99234.72;344011;28;1075;-81
2022/06/26 00:43:11;;;;;;;2.08;1.70;;;;;;;22.53;55.63;99234.28;342897;28;1076;-81
2022/06/26 00:43:28;;;;;;;2.10;1.60;;;;;;;22.55;55.68;99235.00;343903;28;1556;-81
2022/06/26 00:43:40;;;;;;;1.98;1.65;;;;;;;22.56;55.53;99241.97;345186;28;1108;-81
2022/06/26 00:43:52;;;;;;;2.53;1.60;;;;;;;22.49;55.81;99246.13;345461;28;1015;-81
2022/06/26 00:44:17;;;;;;;3.55;1.60;;;;;;;22.45;55.83;99242.09;344416;28;1400;-81
2022/06/26 00:44:29;;;;;;;4.10;1.70;;;;;;;22.48;55.99;99241.81;344169;28;1188;-81
2022/06/26 00:44:41;;;;;;;3.67;1.65;;;;;;;22.49;55.96;99248.78;344661;28;841;-81
2022/06/26 00:44:55;;;;;;;3.03;1.63;;;;;;;22.49;56.20;99240.84;344301;28;1549;-81
2022/06/26 00:45:08;;;;;;;2.63;1.83;;;;;;;22.48;56.18;99247.13;345102;28;1590;-81
2022/06/26 00:45:20;;;;;;;2.58;1.90;;;;;;;22.45;56.02;99248.22;347112;28;1189;-81
2022/06/26 00:45:33;;;;;;;2.75;1.80;;;;;;;22.39;56.63;99242.63;346532;28;1059;-82
2022/06/26 00:45:45;;;;;;;2.63;1.80;;;;;;;22.40;56.15;99250.44;346629;28;1106;-82
2022/06/26 00:45:57;;;;;;;2.60;1.80;;;;;;;22.37;56.60;99249.88;345412;28;1701;-81
2022/06/26 00:46:09;;;;;;;2.72;1.70;;;;;;;22.22;56.90;99257.31;345897;28;736;-81
2022/06/26 00:46:24;;;;;;;2.67;1.77;;;;;;;22.22;57.29;99252.88;345513;28;1111;-81
2022/06/26 00:46:37;;;;;;;2.50;1.90;;;;;;;22.30;57.13;99242.47;346567;28;1071;-81
2022/06/26 00:46:50;;;;;;;2.42;1.90;;;;;;;22.33;57.15;99258.09;347539;28;1554;-81
2022/06/26 00:47:03;;;;;;;2.40;1.73;;;;;;;22.32;57.55;99247.63;346254;28;1375;-81
2022/06/26 00:47:15;;;;;;;2.08;1.70;;;;;;;22.36;57.52;99254.34;347025;28;1092;-81
2022/06/26 00:47:27;;;;;;;2.25;1.75;;;;;;;22.32;57.79;99256.41;346628;28;1035;-81
2022/06/26 00:47:39;;;;;;;2.45;1.85;;;;;;;22.34;57.64;99251.81;347012;28;978;-81
2022/06/26 00:47:51;;;;;;;2.65;1.95;;;;;;;22.31;57.98;99248.59;347066;28;1701;-81
2022/06/26 00:48:03;;;;;;;2.70;1.88;;;;;;;22.22;58.19;99252.88;346043;28;1213;-81
2022/06/26 00:48:15;;;;;;;1.98;1.65;;;;;;;22.17;58.79;99255.06;345147;28;1049;-81
2022/06/26 00:48:27;;;;;;;2.50;1.70;;;;;;;22.20;58.57;99254.81;341950;28;1636;-82
2022/06/26 00:48:39;;;;;;;4.15;1.85;;;;;;;22.18;58.84;99256.75;342796;28;1969;-81
2022/06/26 00:48:52;;;;;;;4.18;1.90;;;;;;;22.16;58.94;99253.41;342896;28;1713;-82
2022/06/26 00:49:04;;;;;;;2.83;1.88;;;;;;;22.18;59.01;99256.75;342864;28;1202;-81
2022/06/26 00:49:17;;;;;;;2.90;2.00;;;;;;;22.15;59.14;99251.72;342128;29;750;-81
2022/06/26 00:49:30;;;;;;;5.43;2.25;;;;;;;22.16;59.39;99245.47;342737;28;1290;-81
2022/06/26 00:49:44;;;;;;;5.53;2.20;;;;;;;22.15;59.72;99251.72;342758;28;1964;-81
2022/06/26 00:49:56;;;;;;;2.75;1.95;;;;;;;22.14;59.56;99255.34;343377;28;1075;-81
2022/06/26 00:50:08;;;;;;;2.20;1.90;;;;;;;22.16;59.49;99263.16;344418;28;1055;-81
2022/06/26 00:50:20;;;;;;;2.50;1.90;;;;;;;22.12;59.74;99252.00;343928;28;896;-82
2022/06/26 00:50:33;;;;;;;2.90;1.98;;;;;;;22.13;60.13;99251.88;344181;28;1067;-81
2022/06/26 00:50:45;;;;;;;2.97;1.95;;;;;;;22.12;60.06;99252.00;342993;28;1871;-82
2022/06/26 00:50:57;;;;;;;3.03;1.77;;;;;;;22.00;60.25;99250.41;342164;28;1346;-82
2022/06/26 00:51:10;;;;;;;3.75;1.77;;;;;;;21.98;60.71;99257.66;341459;29;1599;-81
2022/06/26 00:51:22;;;;;;;4.07;2.00;;;;;;;21.86;60.77;99262.19;340160;29;1067;-81
2022/06/26 00:51:36;;;;;;;3.22;2.13;;;;;;;21.85;61.14;99269.28;340476;29;884;-82
2022/06/26 00:51:55;;;;;;;3.72;2.10;;;;;;;21.82;60.97;99261.59;340426;29;1222;-81
2022/06/26 00:52:07;;;;;;;3.67;2.20;;;;;;;21.88;61.12;99255.78;341836;28;938;-81
2022/06/26 00:52:23;;;;;;;4.20;2.13;;;;;;;21.96;60.73;99263.06;341504;29;1170;-81
2022/06/26 00:52:37;;;;;;;5.60;2.20;;;;;;;21.99;60.91;99261.94;341462;29;861;-81
2022/06/26 00:52:50;;;;;;;4.45;2.28;;;;;;;22.01;60.79;99260.00;342288;28;1075;-81
2022/06/26 00:53:04;;;;;;;3.75;2.05;;;;;;;22.05;60.82;99256.13;343795;28;1123;-81
2022/06/26 00:53:16;;;;;;;2.40;1.88;;;;;;;22.03;60.98;99256.25;344184;28;794;-81
2022/06/26 00:53:29;;;;;;;2.38;2.00;;;;;;;22.07;61.10;99265.63;343910;28;1816;-81
2022/06/26 00:53:42;;;;;;;2.30;2.10;;;;;;;22.01;61.24;99260.00;345200;28;1053;-81
2022/06/26 00:53:54;;;;;;;2.60;2.00;;;;;;;21.96;61.53;99260.41;343714;28;1575;-81
2022/06/26 00:54:07;;;;;;;2.67;2.03;;;;;;;22.02;60.96;99267.00;343585;28;1075;-81
2022/06/26 00:54:20;;;;;;;4.25;2.08;;;;;;;21.98;61.31;99265.59;346994;28;1114;-81
2022/06/26 00:54:33;;;;;;;4.63;2.13;;;;;;;21.97;61.77;99263.91;346183;28;782;-81
2022/06/26 00:54:45;;;;;;;3.38;2.10;;;;;;;21.98;61.45;99260.28;345764;28;1140;-81
2022/06/26 00:54:57;;;;;;;2.97;1.90;;;;;;;21.89;61.74;99270.72;343913;28;1887;-81
2022/06/26 00:55:10;;;;;;;3.08;2.00;;;;;;;21.87;62.09;99267.34;344590;28;1738;-81
2022/06/26 00:55:23;;;;;;;2.70;2.00;;;;;;;21.91;61.62;99271.41;344441;28;1551;-81
2022/06/26 00:55:37;;;;;;;2.78;2.05;;;;;;;21.97;61.65;99261.25;344284;28;1464;-81
2022/06/26 00:55:49;;;;;;;2.78;2.00;;;;;;;22.00;61.85;99253.06;342749;28;1001;-81
2022/06/26 00:56:01;;;;;;;2.38;2.00;;;;;;;22.02;61.68;99267.81;342050;28;1134;-81
2022/06/26 00:56:13;;;;;;;2.65;2.00;;;;;;;21.93;62.03;99276.53;343355;28;1687;-82
2022/06/26 00:56:25;;;;;;;3.20;2.10;;;;;;;21.96;61.93;99267.53;344050;28;1063;-81
2022/06/26 00:56:37;;;;;;;3.70;2.20;;;;;;;21.89;62.14;99273.34;344119;28;1163;-81
2022/06/26 00:56:49;;;;;;;4.45;2.20;;;;;;;21.92;62.38;99272.25;344152;28;1753;-81
2022/06/26 00:57:01;;;;;;;3.92;2.15;;;;;;;21.97;61.93;99269.19;344768;28;939;-81
2022/06/26 00:57:13;;;;;;;3.13;2.03;;;;;;;21.88;62.24;99271.66;344304;28;1092;-81
2022/06/26 00:57:26;;;;;;;4.65;2.10;;;;;;;21.85;62.58;99271.06;342616;28;750;-81
2022/06/26 00:57:38;;;;;;;5.25;2.15;;;;;;;21.79;62.73;99267.13;343259;28;771;-81
2022/06/26 00:57:51;;;;;;;3.42;2.08;;;;;;;21.84;62.54;99264.94;343178;28;868;-81
2022/06/26 00:58:03;;;;;;;2.30;2.10;;;;;;;21.88;62.15;99269.00;345004;28;1451;-81
2022/06/26 00:58:15;;;;;;;2.72;2.20;;;;;;;21.85;62.45;99271.94;345656;28;765;-81
2022/06/26 00:58:27;;;;;;;3.60;2.20;;;;;;;21.87;62.50;99270.00;343902;28;1242;-81
2022/06/26 00:58:40;;;;;;;3.95;2.03;;;;;;;21.83;62.49;99279.16;343868;28;1267;-81
2022/06/26 00:58:52;;;;;;;3.53;2.00;;;;;;;21.84;62.88;99270.25;344402;28;1929;-81
2022/06/26 00:59:04;;;;;;;3.08;1.90;;;;;;;21.86;62.52;99270.13;344021;28;1562;-81
2022/06/26 00:59:17;;;;;;;2.28;2.00;;;;;;;21.86;62.66;99273.59;344423;28;1087;-81
2022/06/26 00:59:30;;;;;;;2.92;2.15;;;;;;;21.89;62.68;99270.72;343341;28;1084;-81
2022/06/26 00:59:42;;;;;;;2.72;2.15;;;;;;;21.89;62.67;99272.50;343349;28;1183;-81
2022/06/26 00:59:56;;;;;;;4.50;2.20;;;;;;;21.86;62.62;99276.25;343844;28;1654;-81
2022/06/26 01:00:12;;;;;;;4.95;2.10;;;;;;;21.91;62.96;99268.75;343434;28;806;-81